sensor_id;sensor_type;location;lat;lon;timestamp;P1;durP1;ratioP1;P2;durP2;ratioP2
70927;SDS011;58587;53.034;18.576;2023-04-25T11:27:20;1.25;;;0.90;;
70927;SDS011;58587;53.034;18.576;2023-04-25T11:29:46;8.33;;;1.90;;
70927;SDS011;58587;53.034;18.576;2023-04-25T11:32:13;1.73;;;0.90;;
70927;SDS011;58587;53.034;18.576;2023-04-25T11:34:43;1.88;;;0.82;;
70927;SDS011;58587;53.034;18.576;2023-04-25T11:37:10;1.90;;;1.17;;
70927;SDS011;58587;53.034;18.576;2023-04-25T11:39:37;5.90;;;1.23;;
70927;SDS011;58587;53.034;18.576;2023-04-25T11:42:03;10.13;;;3.28;;
70927;SDS011;58587;53.034;18.576;2023-04-25T11:44:29;1.50;;;1.20;;
70927;SDS011;58587;53.034;18.576;2023-04-25T11:46:54;3.67;;;1.40;;
70927;SDS011;58587;53.034;18.576;2023-04-25T11:49:20;2.73;;;1.53;;
70927;SDS011;58587;53.034;18.576;2023-04-25T11:51:47;1.40;;;1.00;;
70927;SDS011;58587;53.034;18.576;2023-04-25T11:54:13;4.03;;;1.50;;
70927;SDS011;58587;53.034;18.576;2023-04-25T11:56:45;4.40;;;1.70;;
70927;SDS011;58587;53.034;18.576;2023-04-25T11:59:11;2.03;;;1.20;;
70927;SDS011;58587;53.034;18.576;2023-04-25T12:01:37;4.05;;;1.92;;
70927;SDS011;58587;53.034;18.576;2023-04-25T12:04:14;4.15;;;3.20;;
70927;SDS011;58587;53.034;18.576;2023-04-25T12:06:42;2.57;;;1.73;;
70927;SDS011;58587;53.034;18.576;2023-04-25T12:09:09;2.17;;;1.30;;
70927;SDS011;58587;53.034;18.576;2023-04-25T12:11:42;2.92;;;1.40;;
70927;SDS011;58587;53.034;18.576;2023-04-25T12:14:08;2.15;;;1.50;;
70927;SDS011;58587;53.034;18.576;2023-04-25T12:16:44;1.45;;;1.27;;
70927;SDS011;58587;53.034;18.576;2023-04-25T12:19:13;2.57;;;1.37;;
70927;SDS011;58587;53.034;18.576;2023-04-25T12:21:39;3.10;;;1.85;;
70927;SDS011;58587;53.034;18.576;2023-04-25T12:24:23;2.27;;;1.77;;
70927;SDS011;58587;53.034;18.576;2023-04-25T12:29:50;2.20;;;1.70;;
70927;SDS011;58587;53.034;18.576;2023-04-25T12:32:16;3.83;;;3.45;;
70927;SDS011;58587;53.034;18.576;2023-04-25T12:34:42;4.50;;;4.10;;
70927;SDS011;58587;53.034;18.576;2023-04-25T12:37:08;2.92;;;1.77;;
70927;SDS011;58587;53.034;18.576;2023-04-25T12:39:34;3.83;;;1.40;;
70927;SDS011;58587;53.034;18.576;2023-04-25T12:41:59;1.70;;;1.30;;
70927;SDS011;58587;53.034;18.576;2023-04-25T12:44:24;1.83;;;1.38;;
70927;SDS011;58587;53.034;18.576;2023-04-25T12:46:50;2.53;;;1.37;;
70927;SDS011;58587;53.034;18.576;2023-04-25T12:49:16;2.13;;;1.60;;
70927;SDS011;58587;53.034;18.576;2023-04-25T12:51:41;3.30;;;1.60;;
70927;SDS011;58587;53.034;18.576;2023-04-25T12:54:06;3.80;;;2.40;;
70927;SDS011;58587;53.034;18.576;2023-04-25T12:56:33;5.35;;;1.77;;
70927;SDS011;58587;53.034;18.576;2023-04-25T12:58:59;3.40;;;2.10;;
70927;SDS011;58587;53.034;18.576;2023-04-25T13:01:24;3.43;;;2.30;;
70927;SDS011;58587;53.034;18.576;2023-04-25T13:03:51;4.28;;;2.10;;
70927;SDS011;58587;53.034;18.576;2023-04-25T13:06:17;3.63;;;1.80;;
70927;SDS011;58587;53.034;18.576;2023-04-25T13:08:44;5.50;;;3.40;;
70927;SDS011;58587;53.034;18.576;2023-04-25T13:11:10;3.97;;;2.30;;
70927;SDS011;58587;53.034;18.576;2023-04-25T13:13:36;3.20;;;2.00;;
70927;SDS011;58587;53.034;18.576;2023-04-25T13:16:01;23.13;;;9.03;;
70927;SDS011;58587;53.034;18.576;2023-04-25T13:18:27;3.07;;;1.90;;
70927;SDS011;58587;53.034;18.576;2023-04-25T13:20:54;2.38;;;1.80;;
70927;SDS011;58587;53.034;18.576;2023-04-25T13:23:20;2.47;;;1.58;;
70927;SDS011;58587;53.034;18.576;2023-04-25T13:25:47;3.35;;;1.90;;
70927;SDS011;58587;53.034;18.576;2023-04-25T13:28:12;3.47;;;1.67;;
70927;SDS011;58587;53.034;18.576;2023-04-25T13:30:38;3.15;;;1.65;;
70927;SDS011;58587;53.034;18.576;2023-04-25T13:33:03;3.20;;;2.00;;
70927;SDS011;58587;53.034;18.576;2023-04-25T13:35:31;2.35;;;1.60;;
70927;SDS011;58587;53.034;18.576;2023-04-25T13:37:57;2.60;;;2.20;;
70927;SDS011;58587;53.034;18.576;2023-04-25T13:40:23;3.53;;;1.87;;
70927;SDS011;58587;53.034;18.576;2023-04-25T13:42:48;3.00;;;2.30;;
70927;SDS011;58587;53.034;18.576;2023-04-25T13:45:13;2.97;;;2.00;;
70927;SDS011;58587;53.034;18.576;2023-04-25T13:47:39;3.15;;;1.88;;
70927;SDS011;58587;53.034;18.576;2023-04-25T13:50:05;2.00;;;1.80;;
70927;SDS011;58587;53.034;18.576;2023-04-25T13:52:31;5.30;;;2.50;;
70927;SDS011;58587;53.034;18.576;2023-04-25T13:54:56;3.67;;;2.30;;
70927;SDS011;58587;53.034;18.576;2023-04-25T13:57:22;3.35;;;3.00;;
70927;SDS011;58587;53.034;18.576;2023-04-25T13:59:48;2.97;;;2.20;;
70927;SDS011;58587;53.034;18.576;2023-04-25T14:02:13;3.00;;;1.90;;
70927;SDS011;58587;53.034;18.576;2023-04-25T14:04:39;5.93;;;3.35;;
70927;SDS011;58587;53.034;18.576;2023-04-25T14:07:04;5.87;;;3.00;;
70927;SDS011;58587;53.034;18.576;2023-04-25T14:09:30;7.67;;;3.13;;
70927;SDS011;58587;53.034;18.576;2023-04-25T14:11:55;6.60;;;2.70;;
70927;SDS011;58587;53.034;18.576;2023-04-25T14:14:21;3.07;;;1.80;;
70927;SDS011;58587;53.034;18.576;2023-04-25T14:16:48;6.15;;;3.30;;
70927;SDS011;58587;53.034;18.576;2023-04-25T14:19:15;3.53;;;2.13;;
70927;SDS011;58587;53.034;18.576;2023-04-25T14:21:41;4.20;;;2.20;;
70927;SDS011;58587;53.034;18.576;2023-04-25T14:24:06;2.30;;;1.60;;
70927;SDS011;58587;53.034;18.576;2023-04-25T14:26:33;14.20;;;3.53;;
70927;SDS011;58587;53.034;18.576;2023-04-25T14:28:58;3.10;;;2.03;;
70927;SDS011;58587;53.034;18.576;2023-04-25T14:31:24;3.60;;;2.20;;
70927;SDS011;58587;53.034;18.576;2023-04-25T14:33:49;4.13;;;1.93;;
70927;SDS011;58587;53.034;18.576;2023-04-25T14:36:15;2.53;;;1.95;;
70927;SDS011;58587;53.034;18.576;2023-04-25T14:38:40;2.10;;;1.83;;
70927;SDS011;58587;53.034;18.576;2023-04-25T14:41:06;3.23;;;1.80;;
70927;SDS011;58587;53.034;18.576;2023-04-25T14:43:31;2.30;;;1.80;;
70927;SDS011;58587;53.034;18.576;2023-04-25T14:45:56;2.92;;;2.00;;
70927;SDS011;58587;53.034;18.576;2023-04-25T14:48:21;5.10;;;3.10;;
70927;SDS011;58587;53.034;18.576;2023-04-25T14:50:48;4.40;;;1.87;;
70927;SDS011;58587;53.034;18.576;2023-04-25T14:53:13;2.45;;;1.70;;
70927;SDS011;58587;53.034;18.576;2023-04-25T14:55:39;3.50;;;2.57;;
70927;SDS011;58587;53.034;18.576;2023-04-25T14:58:05;7.10;;;3.10;;
70927;SDS011;58587;53.034;18.576;2023-04-25T15:00:30;2.30;;;1.73;;
70927;SDS011;58587;53.034;18.576;2023-04-25T15:02:56;26.67;;;9.05;;
70927;SDS011;58587;53.034;18.576;2023-04-25T15:05:22;3.80;;;2.00;;
70927;SDS011;58587;53.034;18.576;2023-04-25T15:07:48;2.80;;;1.30;;
70927;SDS011;58587;53.034;18.576;2023-04-25T15:10:13;3.10;;;1.63;;
70927;SDS011;58587;53.034;18.576;2023-04-25T15:12:41;3.70;;;1.15;;
70927;SDS011;58587;53.034;18.576;2023-04-25T15:15:07;2.03;;;1.07;;
70927;SDS011;58587;53.034;18.576;2023-04-25T15:17:43;4.93;;;1.20;;
70927;SDS011;58587;53.034;18.576;2023-04-25T15:20:10;5.53;;;3.10;;
70927;SDS011;58587;53.034;18.576;2023-04-25T15:22:36;3.22;;;1.35;;
70927;SDS011;58587;53.034;18.576;2023-04-25T15:25:04;2.90;;;1.40;;
70927;SDS011;58587;53.034;18.576;2023-04-25T15:27:31;3.57;;;1.53;;
70927;SDS011;58587;53.034;18.576;2023-04-25T15:29:57;3.70;;;1.42;;
70927;SDS011;58587;53.034;18.576;2023-04-25T15:32:22;2.50;;;1.40;;
70927;SDS011;58587;53.034;18.576;2023-04-25T15:34:48;2.50;;;1.80;;
70927;SDS011;58587;53.034;18.576;2023-04-25T15:37:13;4.03;;;2.00;;
70927;SDS011;58587;53.034;18.576;2023-04-25T15:39:39;5.43;;;1.90;;
70927;SDS011;58587;53.034;18.576;2023-04-25T15:42:04;2.43;;;1.00;;
70927;SDS011;58587;53.034;18.576;2023-04-25T15:44:29;3.73;;;1.57;;
70927;SDS011;58587;53.034;18.576;2023-04-25T15:46:54;2.57;;;0.90;;
70927;SDS011;58587;53.034;18.576;2023-04-25T15:49:20;1.00;;;0.90;;
70927;SDS011;58587;53.034;18.576;2023-04-25T15:51:49;1.73;;;0.67;;
70927;SDS011;58587;53.034;18.576;2023-04-25T15:54:14;1.88;;;1.15;;
70927;SDS011;58587;53.034;18.576;2023-04-25T15:56:40;1.80;;;1.10;;
70927;SDS011;58587;53.034;18.576;2023-04-25T15:59:05;4.43;;;1.20;;
70927;SDS011;58587;53.034;18.576;2023-04-25T16:01:30;3.37;;;0.90;;
70927;SDS011;58587;53.034;18.576;2023-04-25T16:03:56;2.92;;;1.55;;
70927;SDS011;58587;53.034;18.576;2023-04-25T16:06:22;4.60;;;1.55;;
70927;SDS011;58587;53.034;18.576;2023-04-25T16:08:51;2.05;;;1.10;;
70927;SDS011;58587;53.034;18.576;2023-04-25T16:11:17;1.42;;;0.90;;
70927;SDS011;58587;53.034;18.576;2023-04-25T16:13:43;4.87;;;1.60;;
70927;SDS011;58587;53.034;18.576;2023-04-25T16:16:08;5.00;;;2.63;;
70927;SDS011;58587;53.034;18.576;2023-04-25T16:18:34;2.63;;;2.38;;
70927;SDS011;58587;53.034;18.576;2023-04-25T16:21:00;4.53;;;3.45;;
70927;SDS011;58587;53.034;18.576;2023-04-25T16:23:26;1.20;;;1.10;;
70927;SDS011;58587;53.034;18.576;2023-04-25T16:25:51;2.07;;;1.70;;
70927;SDS011;58587;53.034;18.576;2023-04-25T16:28:18;2.10;;;1.10;;
70927;SDS011;58587;53.034;18.576;2023-04-25T16:30:44;4.22;;;2.13;;
70927;SDS011;58587;53.034;18.576;2023-04-25T16:33:10;4.32;;;1.60;;
70927;SDS011;58587;53.034;18.576;2023-04-25T16:35:35;3.17;;;1.50;;
70927;SDS011;58587;53.034;18.576;2023-04-25T16:38:01;2.15;;;1.42;;
70927;SDS011;58587;53.034;18.576;2023-04-25T16:40:26;2.47;;;1.30;;
70927;SDS011;58587;53.034;18.576;2023-04-25T16:42:52;2.20;;;1.40;;
70927;SDS011;58587;53.034;18.576;2023-04-25T16:45:17;2.88;;;1.70;;
70927;SDS011;58587;53.034;18.576;2023-04-25T16:47:44;2.97;;;1.85;;
70927;SDS011;58587;53.034;18.576;2023-04-25T16:50:11;4.78;;;2.00;;
70927;SDS011;58587;53.034;18.576;2023-04-25T16:52:38;6.38;;;2.90;;
70927;SDS011;58587;53.034;18.576;2023-04-25T16:55:03;6.87;;;2.40;;
70927;SDS011;58587;53.034;18.576;2023-04-25T16:57:29;6.50;;;2.10;;
70927;SDS011;58587;53.034;18.576;2023-04-25T16:59:54;5.57;;;2.95;;
70927;SDS011;58587;53.034;18.576;2023-04-25T17:02:20;12.77;;;4.20;;
70927;SDS011;58587;53.034;18.576;2023-04-25T17:04:46;4.90;;;2.28;;
70927;SDS011;58587;53.034;18.576;2023-04-25T17:07:11;5.77;;;2.53;;
70927;SDS011;58587;53.034;18.576;2023-04-25T17:09:36;3.00;;;2.00;;
70927;SDS011;58587;53.034;18.576;2023-04-25T17:12:03;3.78;;;2.00;;
70927;SDS011;58587;53.034;18.576;2023-04-25T17:14:28;5.00;;;2.10;;
70927;SDS011;58587;53.034;18.576;2023-04-25T17:16:56;2.72;;;1.77;;
70927;SDS011;58587;53.034;18.576;2023-04-25T17:19:21;3.97;;;1.70;;
70927;SDS011;58587;53.034;18.576;2023-04-25T17:21:46;4.20;;;1.83;;
70927;SDS011;58587;53.034;18.576;2023-04-25T17:24:12;4.63;;;2.92;;
70927;SDS011;58587;53.034;18.576;2023-04-25T17:26:39;5.23;;;3.07;;
70927;SDS011;58587;53.034;18.576;2023-04-25T17:29:05;4.82;;;2.75;;
70927;SDS011;58587;53.034;18.576;2023-04-25T17:31:30;5.30;;;2.23;;
70927;SDS011;58587;53.034;18.576;2023-04-25T17:33:55;4.70;;;2.70;;
70927;SDS011;58587;53.034;18.576;2023-04-25T17:36:21;4.35;;;2.58;;
70927;SDS011;58587;53.034;18.576;2023-04-25T17:38:47;4.40;;;2.70;;
70927;SDS011;58587;53.034;18.576;2023-04-25T17:41:12;7.57;;;3.07;;
70927;SDS011;58587;53.034;18.576;2023-04-25T17:43:38;9.48;;;4.90;;
70927;SDS011;58587;53.034;18.576;2023-04-25T17:46:04;6.90;;;3.20;;
70927;SDS011;58587;53.034;18.576;2023-04-25T17:48:29;68.47;;;35.53;;
70927;SDS011;58587;53.034;18.576;2023-04-25T17:50:55;56.50;;;24.27;;
70927;SDS011;58587;53.034;18.576;2023-04-25T17:53:22;86.82;;;38.78;;
70927;SDS011;58587;53.034;18.576;2023-04-25T17:55:47;221.97;;;115.87;;
70927;SDS011;58587;53.034;18.576;2023-04-25T17:58:14;51.25;;;28.05;;
70927;SDS011;58587;53.034;18.576;2023-04-25T18:00:40;33.93;;;23.07;;
70927;SDS011;58587;53.034;18.576;2023-04-25T18:03:05;91.38;;;51.33;;
70927;SDS011;58587;53.034;18.576;2023-04-25T18:05:31;68.73;;;38.00;;
70927;SDS011;58587;53.034;18.576;2023-04-25T18:07:56;41.33;;;24.23;;
70927;SDS011;58587;53.034;18.576;2023-04-25T18:10:22;14.77;;;9.70;;
70927;SDS011;58587;53.034;18.576;2023-04-25T18:12:47;19.73;;;14.73;;
70927;SDS011;58587;53.034;18.576;2023-04-25T18:15:14;10.82;;;8.18;;
70927;SDS011;58587;53.034;18.576;2023-04-25T18:17:39;17.30;;;13.73;;
70927;SDS011;58587;53.034;18.576;2023-04-25T18:20:06;9.37;;;4.73;;
70927;SDS011;58587;53.034;18.576;2023-04-25T18:22:36;9.52;;;4.50;;
70927;SDS011;58587;53.034;18.576;2023-04-25T18:25:02;10.07;;;5.55;;
70927;SDS011;58587;53.034;18.576;2023-04-25T18:27:29;9.18;;;3.80;;
70927;SDS011;58587;53.034;18.576;2023-04-25T18:29:54;19.77;;;9.53;;
70927;SDS011;58587;53.034;18.576;2023-04-25T18:32:20;20.27;;;9.87;;
70927;SDS011;58587;53.034;18.576;2023-04-25T18:34:45;42.23;;;17.80;;
70927;SDS011;58587;53.034;18.576;2023-04-25T18:37:13;65.07;;;24.05;;
70927;SDS011;58587;53.034;18.576;2023-04-25T18:39:39;62.42;;;22.50;;
70927;SDS011;58587;53.034;18.576;2023-04-25T18:42:05;63.57;;;21.30;;
70927;SDS011;58587;53.034;18.576;2023-04-25T18:44:30;75.70;;;25.43;;
70927;SDS011;58587;53.034;18.576;2023-04-25T18:46:57;68.63;;;23.27;;
70927;SDS011;58587;53.034;18.576;2023-04-25T18:49:23;71.05;;;26.08;;
70927;SDS011;58587;53.034;18.576;2023-04-25T18:51:48;53.47;;;20.77;;
70927;SDS011;58587;53.034;18.576;2023-04-25T18:54:13;48.20;;;18.37;;
70927;SDS011;58587;53.034;18.576;2023-04-25T18:56:39;38.03;;;14.87;;
70927;SDS011;58587;53.034;18.576;2023-04-25T18:59:05;38.17;;;13.15;;
70927;SDS011;58587;53.034;18.576;2023-04-25T19:01:30;10.87;;;4.80;;
70927;SDS011;58587;53.034;18.576;2023-04-25T19:03:56;28.57;;;10.30;;
70927;SDS011;58587;53.034;18.576;2023-04-25T19:06:25;27.00;;;10.48;;
70927;SDS011;58587;53.034;18.576;2023-04-25T19:08:52;13.63;;;5.57;;
70927;SDS011;58587;53.034;18.576;2023-04-25T19:11:19;20.38;;;7.53;;
70927;SDS011;58587;53.034;18.576;2023-04-25T19:13:46;24.20;;;10.18;;
70927;SDS011;58587;53.034;18.576;2023-04-25T19:16:12;15.07;;;6.80;;
70927;SDS011;58587;53.034;18.576;2023-04-25T19:18:37;24.40;;;8.47;;
70927;SDS011;58587;53.034;18.576;2023-04-25T19:21:03;15.20;;;4.00;;
70927;SDS011;58587;53.034;18.576;2023-04-25T19:23:30;13.23;;;4.80;;
70927;SDS011;58587;53.034;18.576;2023-04-25T19:25:56;39.22;;;13.80;;
70927;SDS011;58587;53.034;18.576;2023-04-25T19:28:21;22.63;;;7.67;;
70927;SDS011;58587;53.034;18.576;2023-04-25T19:30:47;15.87;;;5.03;;
70927;SDS011;58587;53.034;18.576;2023-04-25T19:33:12;14.20;;;4.30;;
70927;SDS011;58587;53.034;18.576;2023-04-25T19:35:38;15.43;;;6.13;;
70927;SDS011;58587;53.034;18.576;2023-04-25T19:38:05;48.30;;;18.73;;
70927;SDS011;58587;53.034;18.576;2023-04-25T19:40:31;24.33;;;8.95;;
70927;SDS011;58587;53.034;18.576;2023-04-25T19:42:56;51.57;;;17.20;;
70927;SDS011;58587;53.034;18.576;2023-04-25T19:45:22;28.10;;;11.87;;
70927;SDS011;58587;53.034;18.576;2023-04-25T19:47:47;35.90;;;14.38;;
70927;SDS011;58587;53.034;18.576;2023-04-25T19:50:13;24.65;;;9.88;;
70927;SDS011;58587;53.034;18.576;2023-04-25T19:52:38;20.03;;;8.43;;
70927;SDS011;58587;53.034;18.576;2023-04-25T19:55:04;14.80;;;6.23;;
70927;SDS011;58587;53.034;18.576;2023-04-25T19:57:30;14.18;;;5.60;;
70927;SDS011;58587;53.034;18.576;2023-04-25T20:00:01;19.60;;;8.48;;
70927;SDS011;58587;53.034;18.576;2023-04-25T20:02:29;17.42;;;5.85;;
70927;SDS011;58587;53.034;18.576;2023-04-25T20:04:55;24.13;;;10.70;;
70927;SDS011;58587;53.034;18.576;2023-04-25T20:07:20;27.43;;;13.93;;
70927;SDS011;58587;53.034;18.576;2023-04-25T20:09:47;14.27;;;7.40;;
70927;SDS011;58587;53.034;18.576;2023-04-25T20:12:13;17.63;;;6.57;;
70927;SDS011;58587;53.034;18.576;2023-04-25T20:14:38;19.17;;;5.88;;
70927;SDS011;58587;53.034;18.576;2023-04-25T20:17:04;13.23;;;5.00;;
70927;SDS011;58587;53.034;18.576;2023-04-25T20:19:30;13.80;;;5.75;;
70927;SDS011;58587;53.034;18.576;2023-04-25T20:21:56;13.40;;;5.05;;
70927;SDS011;58587;53.034;18.576;2023-04-25T20:24:22;12.83;;;5.37;;
70927;SDS011;58587;53.034;18.576;2023-04-25T20:26:47;16.83;;;6.10;;
70927;SDS011;58587;53.034;18.576;2023-04-25T20:29:13;16.08;;;5.38;;
70927;SDS011;58587;53.034;18.576;2023-04-25T20:31:39;21.20;;;8.00;;
70927;SDS011;58587;53.034;18.576;2023-04-25T20:34:04;15.80;;;6.55;;
70927;SDS011;58587;53.034;18.576;2023-04-25T20:36:30;10.83;;;4.83;;
70927;SDS011;58587;53.034;18.576;2023-04-25T20:38:56;12.93;;;4.75;;
70927;SDS011;58587;53.034;18.576;2023-04-25T20:41:22;10.80;;;4.20;;
70927;SDS011;58587;53.034;18.576;2023-04-25T20:43:47;16.45;;;5.22;;
70927;SDS011;58587;53.034;18.576;2023-04-25T20:46:14;13.32;;;4.97;;
70927;SDS011;58587;53.034;18.576;2023-04-25T20:48:40;12.50;;;5.03;;
70927;SDS011;58587;53.034;18.576;2023-04-25T20:51:06;13.80;;;5.20;;
70927;SDS011;58587;53.034;18.576;2023-04-25T20:53:31;13.02;;;5.13;;
70927;SDS011;58587;53.034;18.576;2023-04-25T20:55:57;13.87;;;5.30;;
70927;SDS011;58587;53.034;18.576;2023-04-25T20:58:23;10.57;;;4.75;;
70927;SDS011;58587;53.034;18.576;2023-04-25T21:00:49;13.10;;;5.32;;
70927;SDS011;58587;53.034;18.576;2023-04-25T21:03:15;12.23;;;4.43;;
70927;SDS011;58587;53.034;18.576;2023-04-25T21:05:40;12.68;;;4.82;;
70927;SDS011;58587;53.034;18.576;2023-04-25T21:08:06;16.70;;;4.40;;
70927;SDS011;58587;53.034;18.576;2023-04-25T21:10:31;13.30;;;4.60;;
70927;SDS011;58587;53.034;18.576;2023-04-25T21:12:57;13.83;;;4.80;;
70927;SDS011;58587;53.034;18.576;2023-04-25T21:15:22;14.00;;;4.60;;
70927;SDS011;58587;53.034;18.576;2023-04-25T21:17:48;12.55;;;4.82;;
70927;SDS011;58587;53.034;18.576;2023-04-25T21:20:15;13.75;;;5.18;;
70927;SDS011;58587;53.034;18.576;2023-04-25T21:22:45;13.02;;;5.15;;
70927;SDS011;58587;53.034;18.576;2023-04-25T21:25:18;11.43;;;5.05;;
70927;SDS011;58587;53.034;18.576;2023-04-25T21:27:55;9.13;;;4.30;;
70927;SDS011;58587;53.034;18.576;2023-04-25T21:30:22;12.95;;;4.78;;
70927;SDS011;58587;53.034;18.576;2023-04-25T21:32:49;11.18;;;4.80;;
70927;SDS011;58587;53.034;18.576;2023-04-25T21:35:15;13.43;;;4.90;;
70927;SDS011;58587;53.034;18.576;2023-04-25T21:37:42;12.02;;;5.38;;
70927;SDS011;58587;53.034;18.576;2023-04-25T21:40:07;14.67;;;5.07;;
70927;SDS011;58587;53.034;18.576;2023-04-25T21:42:34;17.88;;;4.82;;
70927;SDS011;58587;53.034;18.576;2023-04-25T21:45:00;12.00;;;5.03;;
70927;SDS011;58587;53.034;18.576;2023-04-25T21:47:26;11.70;;;4.47;;
70927;SDS011;58587;53.034;18.576;2023-04-25T21:49:52;13.25;;;4.40;;
70927;SDS011;58587;53.034;18.576;2023-04-25T21:52:17;12.30;;;4.13;;
70927;SDS011;58587;53.034;18.576;2023-04-25T21:54:43;14.63;;;5.43;;
70927;SDS011;58587;53.034;18.576;2023-04-25T21:57:08;12.73;;;4.53;;
70927;SDS011;58587;53.034;18.576;2023-04-25T21:59:35;11.73;;;4.00;;
70927;SDS011;58587;53.034;18.576;2023-04-25T22:02:00;12.40;;;4.00;;
70927;SDS011;58587;53.034;18.576;2023-04-25T22:04:26;12.93;;;4.28;;
70927;SDS011;58587;53.034;18.576;2023-04-25T22:06:51;10.20;;;4.60;;
